Time;durP1;ratioP1;P1;durP2;ratioP2;P2;SDS_P1;SDS_P2;PMS_P1;PMS_P2;Temp;Humidity;BMP_temperature;BMP_pressure;BME280_temperature;BME280_humidity;BME280_pressure;Samples;Min_cycle;Max_cycle;Signal;HPM_P1;HPM_P2
2021/12/02 00:00:38;;;;;;;11.37;3.20;;;7.60;74.60;;;;;;5072656;28;20414;-71
2021/12/02 00:03:06;;;;;;;12.17;3.13;;;7.60;74.60;;;;;;5105671;28;20123;-71
2021/12/02 00:05:32;;;;;;;8.75;2.75;;;7.50;74.50;;;;;;5055433;28;20545;-71
2021/12/02 00:07:58;;;;;;;9.63;2.73;;;7.50;74.60;;;;;;5069504;28;20111;-71
2021/12/02 00:10:28;;;;;;;11.47;3.37;;;7.50;74.60;;;;;;5073558;28;20115;-71
2021/12/02 00:12:56;;;;;;;15.45;3.17;;;7.50;74.60;;;;;;5073381;28;20449;-71
2021/12/02 00:15:25;;;;;;;10.80;3.27;;;7.50;74.70;;;;;;5073486;28;20060;-71
2021/12/02 00:18:08;;;;;;;9.17;2.33;;;7.50;74.70;;;;;;5072980;28;20032;-71
2021/12/02 00:23:34;;;;;;;11.73;2.73;;;7.50;74.70;;;;;;5071903;28;20127;-71
2021/12/02 00:26:03;;;;;;;7.30;2.47;;;7.50;74.80;;;;;;5073830;28;20040;-72
2021/12/02 00:28:30;;;;;;;6.10;2.00;;;7.50;74.80;;;;;;5072831;28;20087;-72
2021/12/02 00:30:57;;;;;;;10.63;2.13;;;7.50;74.80;;;;;;5072853;28;20025;-71
2021/12/02 00:33:27;;;;;;;9.90;1.90;;;7.60;75.00;;;;;;5089222;28;20025;-71
2021/12/02 00:35:54;;;;;;;8.63;1.90;;;7.60;75.00;;;;;;5072393;28;20115;-71
2021/12/02 00:38:21;;;;;;;10.47;2.83;;;7.60;75.00;;;;;;5087086;28;20029;-71
2021/12/02 00:40:48;;;;;;;15.27;3.13;;;7.60;75.10;;;;;;5073240;28;20077;-72
2021/12/02 00:43:14;;;;;;;10.37;2.97;;;7.50;75.10;;;;;;5072250;28;20079;-71
2021/12/02 00:45:41;;;;;;;9.00;2.40;;;7.50;75.30;;;;;;5071921;28;20024;-72
2021/12/02 00:48:08;;;;;;;7.67;2.00;;;7.50;75.40;;;;;;5105775;28;20039;-71
2021/12/02 00:50:34;;;;;;;8.33;1.87;;;7.50;75.40;;;;;;5072067;28;20380;-71
2021/12/02 00:53:00;;;;;;;9.27;2.57;;;7.50;75.50;;;;;;5054439;28;20028;-72
2021/12/02 00:55:26;;;;;;;11.33;2.80;;;7.50;75.60;;;;;;5055019;28;20082;-71
2021/12/02 00:57:53;;;;;;;9.20;2.10;;;7.50;75.60;;;;;;5075144;28;20364;-71
2021/12/02 01:00:19;;;;;;;8.73;1.80;;;7.50;75.70;;;;;;5109239;28;20340;-71
2021/12/02 01:02:46;;;;;;;9.80;2.00;;;7.50;75.70;;;;;;5092352;28;20119;-71
2021/12/02 01:05:11;;;;;;;10.67;1.70;;;7.50;75.70;;;;;;5075075;28;20072;-72
2021/12/02 01:07:37;;;;;;;6.32;1.70;;;7.50;75.80;;;;;;5075198;28;20060;-72
2021/12/02 01:10:04;;;;;;;5.73;1.40;;;7.50;75.80;;;;;;5076772;28;20032;-72
2021/12/02 01:12:29;;;;;;;7.20;1.70;;;7.50;75.80;;;;;;5109218;28;20119;-72
2021/12/02 01:14:55;;;;;;;7.63;1.77;;;7.50;75.90;;;;;;5074880;28;20132;-73
2021/12/02 01:17:21;;;;;;;7.87;1.70;;;7.50;76.00;;;;;;5109752;28;20051;-72
2021/12/02 01:19:47;;;;;;;7.80;1.57;;;7.50;76.00;;;;;;5090846;28;20024;-71
2021/12/02 01:22:13;;;;;;;9.27;1.90;;;7.40;76.00;;;;;;5076850;28;20063;-72
2021/12/02 01:24:42;;;;;;;8.60;1.60;;;7.40;76.00;;;;;;5074907;28;20032;-72
2021/12/02 01:27:10;;;;;;;6.83;1.53;;;7.40;76.10;;;;;;5076685;28;20020;-71
2021/12/02 01:29:38;;;;;;;11.43;1.93;;;7.40;76.20;;;;;;5108699;28;20446;-72
2021/12/02 01:32:07;;;;;;;6.20;2.10;;;7.40;76.20;;;;;;5075493;28;20127;-72
2021/12/02 01:34:33;;;;;;;7.30;1.87;;;7.40;76.20;;;;;;5075392;28;20036;-72
2021/12/02 01:37:00;;;;;;;3.77;1.30;;;7.30;76.20;;;;;;5075881;28;20162;-71
2021/12/02 01:39:28;;;;;;;7.70;2.10;;;7.30;76.30;;;;;;5076026;28;20403;-72
2021/12/02 01:41:58;;;;;;;9.67;2.00;;;7.20;76.30;;;;;;5076242;28;20033;-71
2021/12/02 01:44:27;;;;;;;7.43;1.60;;;7.20;76.40;;;;;;5073941;28;20039;-71
2021/12/02 01:46:56;;;;;;;6.17;2.03;;;7.20;76.50;;;;;;5074935;28;20036;-71
2021/12/02 01:49:25;;;;;;;6.70;1.70;;;7.20;76.60;;;;;;5108260;28;20050;-71
2021/12/02 01:51:54;;;;;;;9.37;1.60;;;7.20;76.60;;;;;;5074993;28;20416;-71
2021/12/02 01:54:25;;;;;;;5.43;1.90;;;7.20;76.80;;;;;;5088443;28;20416;-71
2021/12/02 01:56:53;;;;;;;6.80;1.20;;;7.20;76.80;;;;;;5073671;28;20056;-72
2021/12/02 01:59:21;;;;;;;8.77;1.60;;;7.20;76.80;;;;;;5107814;28;20024;-71
2021/12/02 02:01:52;;;;;;;5.23;1.67;;;7.20;76.90;;;;;;5075091;28;20052;-72
2021/12/02 02:04:20;;;;;;;6.60;1.70;;;7.20;77.00;;;;;;5109033;28;20067;-71
2021/12/02 02:06:55;;;;;;;10.87;1.80;;;7.30;77.80;;;;;;5058098;28;20147;-71
2021/12/02 02:09:23;;;;;;;7.07;1.70;;;7.30;77.10;;;;;;5074576;28;20042;-71
2021/12/02 02:11:48;;;;;;;9.70;1.73;;;7.30;77.10;;;;;;5073801;28;20039;-71
2021/12/02 02:14:14;;;;;;;5.23;1.63;;;7.30;77.20;;;;;;5108430;28;20103;-71
2021/12/02 02:16:41;;;;;;;7.30;2.00;;;7.30;77.10;;;;;;5075071;28;20509;-71
2021/12/02 02:19:10;;;;;;;6.30;1.60;;;7.30;77.10;;;;;;5073543;28;20353;-71
2021/12/02 02:21:36;;;;;;;7.93;2.27;;;7.30;77.10;;;;;;5074079;28;20036;-71
2021/12/02 02:24:03;;;;;;;9.53;2.00;;;7.30;77.10;;;;;;5057206;28;20077;-71
2021/12/02 02:26:35;;;;;;;6.33;1.90;;;7.30;77.20;;;;;;5090805;28;20028;-71
2021/12/02 02:29:06;;;;;;;9.57;1.90;;;7.20;77.20;;;;;;5073966;28;20048;-72
2021/12/02 02:31:32;;;;;;;8.23;2.63;;;7.20;77.20;;;;;;5070660;28;20465;-72
2021/12/02 02:33:58;;;;;;;8.20;1.83;;;7.20;77.30;;;;;;5063785;28;20029;-72
2021/12/02 02:36:28;;;;;;;6.93;2.10;;;7.10;77.30;;;;;;5070756;28;20353;-72
2021/12/02 02:38:56;;;;;;;5.13;1.67;;;7.10;77.30;;;;;;5066663;28;20071;-72
2021/12/02 02:41:29;;;;;;;4.87;1.60;;;7.10;77.30;;;;;;5073969;28;20341;-72
2021/12/02 02:43:57;;;;;;;6.13;1.70;;;7.10;77.40;;;;;;5074028;28;20528;-72
2021/12/02 02:46:28;;;;;;;5.03;1.80;;;7.10;77.50;;;;;;5107047;28;20039;-72
2021/12/02 02:48:55;;;;;;;4.53;1.67;;;7.10;77.50;;;;;;5074497;28;20029;-72
2021/12/02 02:51:22;;;;;;;5.27;1.40;;;7.10;77.60;;;;;;5087310;28;20029;-72
2021/12/02 02:53:53;;;;;;;4.33;1.00;;;7.10;77.70;;;;;;5089447;28;20035;-72
2021/12/02 02:56:22;;;;;;;8.02;1.70;;;7.10;77.70;;;;;;5073610;28;20435;-72
2021/12/02 03:12:30;;;;;;;5.28;1.33;;;7.20;77.70;;;;;;5074611;28;20032;-72
2021/12/02 03:17:32;;;;;;;5.57;1.10;;;7.20;77.80;;;;;;5074433;28;20017;-72
2021/12/02 03:19:59;;;;;;;3.57;0.97;;;7.20;77.70;;;;;;5073644;28;20052;-72
2021/12/02 03:22:24;;;;;;;5.93;1.03;;;7.20;77.70;;;;;;5073470;28;20028;-72
2021/12/02 03:24:50;;;;;;;8.23;1.33;;;7.10;77.60;;;;;;5074596;28;20024;-72
2021/12/02 03:27:17;;;;;;;6.77;1.17;;;7.20;77.70;;;;;;5053398;28;20074;-72
2021/12/02 03:29:43;;;;;;;3.20;0.83;;;7.20;77.80;;;;;;5083946;28;20032;-72
2021/12/02 03:32:10;;;;;;;7.87;1.20;;;7.10;77.80;;;;;;5073123;28;20047;-72
2021/12/02 03:34:37;;;;;;;4.97;1.30;;;7.10;77.80;;;;;;5073934;28;20032;-72
2021/12/02 03:37:03;;;;;;;4.93;1.40;;;7.20;77.80;;;;;;5072967;28;20291;-72
2021/12/02 03:39:30;;;;;;;2.53;0.90;;;7.20;77.80;;;;;;5089645;28;20028;-72
2021/12/02 03:41:56;;;;;;;2.77;0.90;;;7.20;77.70;;;;;;5106297;28;20078;-72
2021/12/02 03:44:23;;;;;;;2.20;0.83;;;7.10;77.60;;;;;;5073275;28;20036;-72
2021/12/02 03:46:49;;;;;;;4.43;1.10;;;7.10;77.60;;;;;;5074236;28;20032;-72
2021/12/02 03:49:14;;;;;;;5.77;1.00;;;7.10;77.70;;;;;;5073685;28;20028;-72
2021/12/02 03:51:40;;;;;;;4.27;0.90;;;7.10;77.80;;;;;;5073960;28;20024;-72
2021/12/02 03:54:06;;;;;;;3.27;0.97;;;7.10;77.70;;;;;;5072898;28;20033;-72
2021/12/02 03:56:33;;;;;;;4.13;1.00;;;7.10;77.60;;;;;;5074203;28;20024;-72
2021/12/02 03:58:58;;;;;;;2.60;0.73;;;7.00;77.50;;;;;;5073938;28;20130;-72
2021/12/02 04:01:24;;;;;;;1.57;0.60;;;7.10;77.60;;;;;;5072175;28;20545;-72
2021/12/02 04:03:50;;;;;;;2.03;0.70;;;7.00;77.60;;;;;;5072963;28;20028;-72
2021/12/02 04:06:16;;;;;;;2.13;0.70;;;7.00;77.50;;;;;;5073635;28;20034;-72
2021/12/02 04:08:45;;;;;;;4.83;1.03;;;7.00;77.60;;;;;;5106441;28;20045;-72
2021/12/02 04:11:36;;;;;;;1.83;1.10;;;7.00;77.60;;;;;;5072332;28;20487;-72
2021/12/02 04:16:51;;;;;;;2.23;0.73;;;7.00;77.60;;;;;;5053078;28;20365;-73
2021/12/02 04:19:16;;;;;;;0.60;0.50;;;7.00;77.60;;;;;;5072629;28;20093;-72
2021/12/02 04:21:42;;;;;;;2.63;0.80;;;7.00;77.60;;;;;;5106588;28;20032;-72
2021/12/02 04:24:08;;;;;;;0.83;0.50;;;6.90;77.60;;;;;;5073702;28;20024;-72
2021/12/02 04:26:33;;;;;;;3.37;0.63;;;6.90;77.60;;;;;;5073963;28;20025;-72
2021/12/02 04:28:59;;;;;;;3.37;1.10;;;7.00;77.60;;;;;;5106329;28;20116;-72
2021/12/02 04:31:25;;;;;;;1.13;0.50;;;6.90;77.60;;;;;;5073015;28;20043;-72
2021/12/02 04:33:50;;;;;;;0.57;0.50;;;6.90;77.60;;;;;;5076396;28;20032;-72
2021/12/02 04:36:16;;;;;;;2.73;0.80;;;6.90;77.60;;;;;;5076992;28;20079;-72
2021/12/02 04:38:41;;;;;;;2.93;0.63;;;6.80;77.60;;;;;;5076619;28;20032;-72
2021/12/02 04:41:08;;;;;;;2.77;0.70;;;6.90;77.60;;;;;;5060160;28;20373;-72
2021/12/02 04:43:34;;;;;;;1.33;0.80;;;6.80;77.50;;;;;;5089527;28;20017;-72
2021/12/02 04:46:00;;;;;;;3.43;0.73;;;6.80;77.60;;;;;;5085107;28;20430;-72
2021/12/02 04:48:25;;;;;;;1.37;0.70;;;6.80;77.60;;;;;;5059305;28;20338;-72
2021/12/02 04:50:52;;;;;;;3.03;0.53;;;6.80;77.60;;;;;;5076486;28;20044;-72
2021/12/02 04:53:18;;;;;;;2.47;0.90;;;6.80;77.60;;;;;;5075998;28;20029;-72
2021/12/02 04:55:44;;;;;;;3.30;0.73;;;6.80;77.60;;;;;;5110233;28;20043;-72
2021/12/02 04:58:09;;;;;;;4.03;0.77;;;6.80;77.60;;;;;;5109552;28;20343;-71
2021/12/02 05:00:35;;;;;;;1.93;0.70;;;6.80;77.60;;;;;;5076209;28;20069;-72
2021/12/02 05:03:01;;;;;;;4.90;0.80;;;6.90;77.60;;;;;;5076098;28;20066;-72
2021/12/02 05:05:27;;;;;;;4.57;0.70;;;6.90;77.60;;;;;;5076279;28;20115;-72
2021/12/02 05:07:53;;;;;;;1.60;0.60;;;6.90;77.60;;;;;;5076077;28;20037;-72
2021/12/02 05:10:20;;;;;;;3.67;0.70;;;6.90;77.60;;;;;;5075470;28;20081;-72
2021/12/02 05:12:46;;;;;;;2.83;0.80;;;6.80;77.60;;;;;;5077065;28;20101;-72
2021/12/02 05:15:12;;;;;;;2.77;0.90;;;6.80;77.60;;;;;;5076477;28;20055;-72
2021/12/02 05:17:38;;;;;;;4.07;1.07;;;6.80;77.60;;;;;;5076418;28;20033;-72
2021/12/02 05:20:05;;;;;;;3.63;0.90;;;6.80;77.60;;;;;;5076714;28;20449;-72
2021/12/02 05:22:32;;;;;;;2.40;0.70;;;6.80;77.60;;;;;;5075864;28;20024;-71
2021/12/02 05:24:58;;;;;;;2.93;1.00;;;6.80;77.60;;;;;;5074793;28;20028;-71
2021/12/02 05:27:23;;;;;;;2.10;1.03;;;6.80;77.60;;;;;;5076823;28;20036;-71
2021/12/02 05:29:49;;;;;;;4.63;1.37;;;6.80;77.80;;;;;;5057248;28;20053;-72
2021/12/02 05:32:15;;;;;;;2.30;0.77;;;6.80;77.80;;;;;;5075730;28;20033;-72
2021/12/02 05:34:40;;;;;;;2.33;0.87;;;6.80;77.80;;;;;;5072045;28;20094;-72
2021/12/02 05:37:06;;;;;;;2.13;0.80;;;6.80;77.80;;;;;;5089435;28;20033;-72
2021/12/02 05:39:32;;;;;;;0.83;0.60;;;6.70;77.80;;;;;;5064902;28;20021;-72
2021/12/02 05:41:57;;;;;;;1.53;0.80;;;6.70;77.80;;;;;;5057931;28;20468;-72
2021/12/02 05:44:24;;;;;;;3.90;1.00;;;6.60;77.80;;;;;;5074926;28;20425;-72
2021/12/02 05:46:50;;;;;;;5.67;0.83;;;6.60;77.80;;;;;;5092460;28;20077;-72
2021/12/02 05:49:16;;;;;;;1.83;0.70;;;6.60;77.80;;;;;;5091435;28;20085;-72
2021/12/02 05:51:42;;;;;;;2.47;0.80;;;6.70;77.80;;;;;;5074996;28;20467;-72
2021/12/02 05:54:09;;;;;;;2.57;0.87;;;6.60;77.70;;;;;;5075096;28;20047;-72
2021/12/02 05:56:35;;;;;;;2.60;1.13;;;6.70;77.70;;;;;;5076356;28;20035;-72
2021/12/02 05:59:01;;;;;;;1.03;0.67;;;6.60;77.60;;;;;;5058324;28;20056;-72
2021/12/02 06:01:26;;;;;;;1.60;0.70;;;6.70;77.60;;;;;;5075353;28;20043;-72
2021/12/02 06:03:52;;;;;;;2.60;0.60;;;6.60;77.60;;;;;;5075153;28;20032;-72
2021/12/02 06:06:18;;;;;;;2.47;0.90;;;6.60;77.60;;;;;;5073852;28;20024;-72
2021/12/02 06:08:44;;;;;;;3.33;1.07;;;6.60;77.60;;;;;;5072908;28;20040;-72
2021/12/02 06:11:10;;;;;;;1.90;0.70;;;6.60;77.50;;;;;;5073324;28;20105;-72
2021/12/02 06:13:36;;;;;;;2.20;1.03;;;6.60;77.40;;;;;;5075600;28;20082;-72
2021/12/02 06:16:01;;;;;;;0.70;0.43;;;6.60;77.40;;;;;;5074254;28;20111;-72
2021/12/02 06:18:27;;;;;;;1.80;0.93;;;6.60;77.40;;;;;;5075856;28;20029;-72
2021/12/02 06:20:55;;;;;;;2.70;0.87;;;6.50;77.30;;;;;;5074308;28;20361;-72
2021/12/02 06:23:22;;;;;;;2.27;0.80;;;6.50;77.30;;;;;;5073910;28;20039;-73
2021/12/02 06:25:48;;;;;;;1.67;0.93;;;6.50;77.40;;;;;;5108259;28;20036;-73
2021/12/02 06:28:14;;;;;;;3.27;0.80;;;6.50;77.40;;;;;;5074274;28;20052;-73
2021/12/02 06:30:40;;;;;;;2.63;0.90;;;6.50;77.40;;;;;;5074269;28;20337;-74
2021/12/02 06:33:06;;;;;;;1.87;1.00;;;6.50;77.40;;;;;;5104326;28;20032;-74
2021/12/02 06:35:32;;;;;;;3.10;1.13;;;6.50;77.40;;;;;;5067294;28;20406;-74
2021/12/02 06:37:57;;;;;;;3.83;0.80;;;6.50;77.40;;;;;;5070871;28;20029;-74
2021/12/02 06:40:23;;;;;;;3.83;1.23;;;6.50;77.40;;;;;;5058574;28;20446;-74
2021/12/02 06:42:49;;;;;;;2.40;1.00;;;6.50;77.40;;;;;;5059604;28;20346;-73
2021/12/02 06:45:15;;;;;;;2.50;1.23;;;6.50;77.50;;;;;;5071398;28;20028;-73
2021/12/02 06:47:42;;;;;;;3.27;1.10;;;6.50;77.50;;;;;;5089128;28;20334;-73
2021/12/02 06:50:18;;;;;;;3.00;0.93;;;6.50;77.50;;;;;;5074588;28;20046;-72
2021/12/02 06:52:45;;;;;;;4.80;1.50;;;6.50;77.50;;;;;;5074254;28;20071;-73
2021/12/02 06:55:12;;;;;;;5.00;1.17;;;6.50;77.60;;;;;;5074434;28;20036;-73
2021/12/02 06:57:39;;;;;;;4.60;1.20;;;6.50;77.70;;;;;;5075027;28;20429;-73
2021/12/02 07:00:08;;;;;;;3.27;1.10;;;6.50;77.70;;;;;;5074846;28;20357;-73
2021/12/02 07:02:34;;;;;;;1.83;0.90;;;6.50;77.70;;;;;;5074770;28;20028;-73
2021/12/02 07:05:01;;;;;;;4.57;1.33;;;6.50;77.60;;;;;;5074930;28;20028;-73
2021/12/02 07:07:31;;;;;;;2.43;1.07;;;6.50;77.60;;;;;;5090977;28;20024;-73
2021/12/02 07:09:59;;;;;;;2.37;1.00;;;6.50;77.50;;;;;;5073638;28;20085;-73
2021/12/02 07:12:30;;;;;;;3.27;1.20;;;6.50;77.50;;;;;;5074376;28;20350;-73
2021/12/02 07:14:58;;;;;;;2.83;1.30;;;6.50;77.50;;;;;;5073836;28;20385;-73
2021/12/02 07:17:24;;;;;;;2.90;1.50;;;6.50;77.50;;;;;;5073367;28;20031;-73
2021/12/02 07:19:49;;;;;;;5.30;1.77;;;6.40;77.50;;;;;;5107389;28;20028;-73
2021/12/02 07:22:15;;;;;;;3.53;1.43;;;6.40;77.50;;;;;;5074480;28;20078;-73
2021/12/02 07:24:41;;;;;;;4.93;1.83;;;6.40;77.40;;;;;;5107388;28;20056;-73
2021/12/02 07:27:07;;;;;;;3.97;1.30;;;6.40;77.50;;;;;;5086742;28;20029;-73
2021/12/02 07:29:32;;;;;;;5.13;1.50;;;6.40;77.50;;;;;;5086946;28;20051;-73
2021/12/02 07:32:02;;;;;;;4.13;1.30;;;6.40;77.50;;;;;;5078351;28;20025;-71
2021/12/02 07:34:33;;;;;;;5.43;1.93;;;6.40;77.50;;;;;;5107229;28;20089;-72
2021/12/02 07:37:00;;;;;;;3.78;1.40;;;6.30;77.50;;;;;;5090058;28;20025;-71
2021/12/02 07:39:25;;;;;;;5.23;1.90;;;6.40;77.40;;;;;;5073349;28;20082;-72
2021/12/02 07:41:51;;;;;;;4.70;1.50;;;6.40;77.40;;;;;;5070414;28;20032;-71
2021/12/02 07:44:18;;;;;;;3.63;1.50;;;6.40;77.40;;;;;;5071402;28;20100;-70
2021/12/02 07:46:44;;;;;;;7.60;2.00;;;6.40;77.30;;;;;;5050759;28;20029;-70
2021/12/02 07:49:13;;;;;;;4.03;1.43;;;6.40;77.30;;;;;;5056486;28;20362;-70
2021/12/02 07:51:43;;;;;;;5.77;1.90;;;6.30;77.30;;;;;;5066640;28;20467;-70
2021/12/02 07:54:11;;;;;;;5.20;1.80;;;6.30;77.40;;;;;;5074068;28;20051;-70
2021/12/02 07:56:36;;;;;;;3.87;1.60;;;6.30;77.30;;;;;;5073608;28;20035;-70
2021/12/02 07:59:03;;;;;;;3.83;1.47;;;6.30;77.30;;;;;;5106759;28;20365;-70
2021/12/02 08:01:29;;;;;;;5.63;1.73;;;6.30;77.30;;;;;;5074021;28;20025;-70
2021/12/02 08:03:55;;;;;;;5.80;1.70;;;6.30;77.40;;;;;;5106873;28;20029;-70
2021/12/02 08:06:21;;;;;;;5.10;1.60;;;6.30;77.40;;;;;;5074233;28;20038;-70
2021/12/02 08:08:47;;;;;;;2.67;1.37;;;6.30;77.40;;;;;;5086859;28;20039;-70
2021/12/02 08:11:13;;;;;;;3.93;1.67;;;6.30;77.40;;;;;;5075574;28;20021;-69
2021/12/02 08:13:39;;;;;;;6.40;1.70;;;6.40;77.50;;;;;;5073695;28;20515;-70
2021/12/02 08:16:06;;;;;;;5.50;1.93;;;6.40;77.40;;;;;;5065951;28;20021;-70
2021/12/02 08:18:34;;;;;;;5.07;2.03;;;6.40;77.50;;;;;;5075391;28;20503;-70
2021/12/02 08:21:00;;;;;;;5.37;1.87;;;6.50;77.60;;;;;;5066007;28;20024;-70
2021/12/02 08:23:26;;;;;;;7.20;2.30;;;6.50;77.50;;;;;;5091679;28;20089;-70
2021/12/02 08:25:53;;;;;;;4.97;1.70;;;6.60;77.40;;;;;;5077875;28;20029;-70
2021/12/02 08:28:20;;;;;;;8.10;1.90;;;6.60;77.30;;;;;;5076852;28;20128;-70
2021/12/02 08:30:45;;;;;;;7.57;1.70;;;6.70;77.40;;;;;;5107628;28;20093;-67
2021/12/02 08:33:13;;;;;;;3.80;1.30;;;6.70;77.30;;;;;;5091679;28;20037;-67
2021/12/02 08:35:39;;;;;;;6.80;2.10;;;6.70;77.20;;;;;;5054856;28;20408;-69
2021/12/02 08:38:10;;;;;;;4.77;2.00;;;6.80;77.30;;;;;;5056782;28;20112;-68
2021/12/02 08:40:37;;;;;;;8.80;1.97;;;6.80;77.40;;;;;;5073859;28;20025;-67
2021/12/02 08:43:06;;;;;;;7.17;2.07;;;6.80;77.30;;;;;;5092771;28;20037;-69
2021/12/02 08:45:33;;;;;;;3.70;1.50;;;6.80;77.40;;;;;;5058499;28;20072;-68
2021/12/02 08:48:00;;;;;;;6.47;2.13;;;6.80;77.50;;;;;;5059992;28;20365;-69
2021/12/02 08:50:26;;;;;;;5.33;1.97;;;6.80;77.50;;;;;;5061276;28;20500;-71
2021/12/02 08:52:53;;;;;;;7.57;1.90;;;6.80;77.50;;;;;;5059283;28;20457;-70
2021/12/02 08:55:21;;;;;;;5.67;1.97;;;6.80;77.50;;;;;;5054523;28;20111;-71
2021/12/02 08:57:49;;;;;;;4.87;2.20;;;6.80;77.40;;;;;;5065488;28;20043;-70
2021/12/02 09:00:18;;;;;;;5.43;1.90;;;6.70;77.40;;;;;;5076792;28;20028;-70
2021/12/02 09:02:44;;;;;;;5.47;2.00;;;6.70;77.50;;;;;;5074885;28;20115;-69
2021/12/02 09:05:10;;;;;;;6.93;2.00;;;6.70;77.50;;;;;;5074260;28;20111;-69
2021/12/02 09:07:36;;;;;;;5.47;1.70;;;6.80;77.60;;;;;;5074480;28;20032;-67
2021/12/02 09:10:04;;;;;;;5.67;1.77;;;6.80;77.60;;;;;;5058736;28;20033;-67
2021/12/02 09:12:30;;;;;;;4.70;1.50;;;6.80;77.50;;;;;;5108175;28;20024;-67
2021/12/02 09:14:55;;;;;;;5.93;2.33;;;6.90;77.50;;;;;;5075417;28;20029;-64
2021/12/02 09:17:21;;;;;;;7.30;2.03;;;6.90;77.40;;;;;;5076753;28;20020;-66
2021/12/02 09:19:48;;;;;;;6.37;1.90;;;6.90;77.30;;;;;;5076192;28;20453;-66
2021/12/02 09:22:13;;;;;;;6.33;2.10;;;7.00;77.30;;;;;;5073830;28;20034;-66
2021/12/02 09:24:39;;;;;;;4.47;1.80;;;7.00;77.20;;;;;;5075678;28;20107;-68
2021/12/02 09:27:05;;;;;;;5.37;2.10;;;7.00;77.20;;;;;;5072981;28;20128;-67
2021/12/02 09:29:31;;;;;;;4.10;1.50;;;7.00;77.20;;;;;;5073779;28;20473;-68
2021/12/02 09:31:57;;;;;;;4.03;1.70;;;7.00;77.20;;;;;;5075146;28;20040;-68
2021/12/02 09:34:23;;;;;;;5.73;2.00;;;7.00;77.20;;;;;;5076627;28;20120;-67
2021/12/02 09:36:49;;;;;;;4.97;2.03;;;7.00;77.10;;;;;;5075519;28;20049;-67
2021/12/02 09:39:15;;;;;;;6.80;1.90;;;7.00;77.00;;;;;;5104197;28;20020;-67
2021/12/02 09:41:43;;;;;;;5.50;2.00;;;7.00;77.00;;;;;;5066918;28;20112;-68
2021/12/02 09:44:10;;;;;;;8.07;2.23;;;7.10;77.00;;;;;;5070899;28;20036;-69
2021/12/02 09:46:38;;;;;;;4.27;1.50;;;7.20;76.90;;;;;;5073848;28;20310;-68
2021/12/02 09:49:04;;;;;;;4.37;1.70;;;7.30;76.70;;;;;;5085912;28;20020;-68
2021/12/02 09:51:39;;;;;;;4.37;1.67;;;7.50;76.50;;;;;;5065759;28;20457;-68
2021/12/02 09:54:09;;;;;;;5.07;1.50;;;7.60;76.30;;;;;;5061607;28;20029;-67
2021/12/02 09:56:37;;;;;;;6.07;1.93;;;7.70;76.30;;;;;;5046046;28;20027;-68
2021/12/02 09:59:07;;;;;;;3.53;1.30;;;7.70;76.20;;;;;;5073303;28;20024;-67
2021/12/02 10:01:51;;;;;;;4.30;1.57;;;7.60;76.20;;;;;;5084037;28;20029;-66
2021/12/02 10:04:17;;;;;;;6.27;1.30;;;7.50;76.30;;;;;;5071756;28;20032;-67
2021/12/02 10:06:43;;;;;;;2.63;1.23;;;7.40;76.40;;;;;;5089675;28;20052;-66
2021/12/02 10:12:19;;;;;;;4.53;1.30;;;7.40;76.50;;;;;;5052209;28;20469;-67
2021/12/02 10:14:48;;;;;;;;;;;7.40;76.40;;;;;;5075086;28;20064;-66
2021/12/02 10:17:32;;;;;;;2.50;1.10;;;7.40;76.50;;;;;;5075006;28;19909;-67
2021/12/02 10:19:59;;;;;;;2.73;1.30;;;7.50;76.50;;;;;;5072311;28;20044;-67
2021/12/02 10:22:24;;;;;;;1.17;0.80;;;7.40;76.30;;;;;;5075388;28;20093;-67
2021/12/02 10:24:50;;;;;;;2.20;0.90;;;7.40;76.30;;;;;;5070328;28;20415;-68
2021/12/02 10:27:15;;;;;;;3.27;1.20;;;7.40;76.30;;;;;;5074422;28;20485;-67
2021/12/02 10:29:46;;;;;;;4.00;1.00;;;7.40;76.30;;;;;;5068399;28;20063;-66
2021/12/02 10:32:21;;;;;;;3.27;1.30;;;7.30;76.40;;;;;;5058140;28;20069;-67
2021/12/02 10:34:55;;;;;;;2.17;0.90;;;7.20;76.40;;;;;;5073910;28;20036;-67
2021/12/02 10:37:24;;;;;;;2.63;1.07;;;7.10;76.60;;;;;;5103478;28;20040;-67
2021/12/02 10:39:57;;;;;;;2.33;0.90;;;7.00;76.60;;;;;;5106696;28;20162;-67
2021/12/02 10:42:23;;;;;;;1.70;0.90;;;7.10;76.70;;;;;;5074208;28;20040;-66
2021/12/02 10:44:49;;;;;;;4.53;1.17;;;7.00;76.70;;;;;;5073810;28;20097;-67
2021/12/02 10:47:16;;;;;;;5.87;1.47;;;7.00;76.70;;;;;;5074492;28;20077;-67
2021/12/02 10:49:45;;;;;;;4.23;1.40;;;7.10;76.80;;;;;;5073229;28;20032;-67
2021/12/02 10:52:14;;;;;;;3.80;1.30;;;7.20;76.50;;;;;;5069722;28;20078;-67
2021/12/02 10:54:42;;;;;;;4.07;1.63;;;7.20;76.40;;;;;;5068488;28;20040;-66
2021/12/02 10:57:21;;;;;;;5.30;1.17;;;7.40;76.20;;;;;;5074900;28;20028;-67
2021/12/02 10:59:50;;;;;;;3.17;1.17;;;7.60;75.80;;;;;;5070636;28;20041;-68
2021/12/02 11:02:23;;;;;;;3.30;1.20;;;7.70;75.50;;;;;;5070533;28;20032;-68
2021/12/02 11:04:54;;;;;;;4.87;1.13;;;7.80;75.20;;;;;;5073858;28;20447;-68
2021/12/02 11:07:27;;;;;;;4.60;1.60;;;7.90;75.10;;;;;;5069659;28;20091;-69
2021/12/02 11:09:54;;;;;;;2.10;0.90;;;8.00;74.90;;;;;;5055768;28;20043;-69
2021/12/02 11:12:26;;;;;;;3.47;1.10;;;8.20;74.70;;;;;;5072256;28;20334;-70
2021/12/02 11:15:10;;;;;;;2.60;1.00;;;8.30;74.60;;;;;;5073059;28;20020;-70
2021/12/02 11:17:43;;;;;;;3.43;1.23;;;8.40;74.50;;;;;;5075049;28;20090;-67
2021/12/02 11:20:15;;;;;;;3.20;1.03;;;8.40;74.30;;;;;;5107361;28;20419;-69
2021/12/02 11:22:40;;;;;;;2.33;1.00;;;8.40;74.30;;;;;;5072796;28;20024;-69
2021/12/02 11:25:09;;;;;;;2.43;0.90;;;8.40;74.50;;;;;;5070712;28;20103;-68
2021/12/02 11:27:47;;;;;;;2.70;1.07;;;8.40;74.50;;;;;;5072905;28;20024;-68
2021/12/02 11:30:24;;;;;;;2.27;0.83;;;8.30;74.30;;;;;;5106962;28;20051;-69
2021/12/02 11:32:59;;;;;;;4.40;1.30;;;8.20;74.40;;;;;;5090219;28;20037;-69
2021/12/02 11:35:36;;;;;;;3.97;1.10;;;8.20;74.60;;;;;;5074361;28;20397;-68
2021/12/02 11:38:08;;;;;;;2.03;0.93;;;8.20;74.60;;;;;;5107140;28;20043;-69
2021/12/02 11:40:41;;;;;;;4.87;1.10;;;8.20;74.60;;;;;;5106721;28;20028;-69
2021/12/02 11:43:08;;;;;;;4.65;1.45;;;8.10;74.60;;;;;;5073386;28;20032;-69
2021/12/02 11:45:42;;;;;;;3.07;0.90;;;8.10;74.70;;;;;;5052908;28;20032;-68
2021/12/02 11:48:08;;;;;;;1.73;0.80;;;8.10;74.80;;;;;;5070290;28;20036;-68
2021/12/02 11:50:34;;;;;;;2.43;1.13;;;8.10;74.80;;;;;;5099540;28;20039;-68
2021/12/02 11:53:00;;;;;;;2.07;0.80;;;8.10;74.90;;;;;;5071596;28;20056;-68
2021/12/02 11:55:29;;;;;;;2.40;1.20;;;8.10;74.90;;;;;;5074006;28;20029;-69
2021/12/02 11:57:56;;;;;;;4.07;1.13;;;8.10;75.00;;;;;;5074081;28;20025;-69
2021/12/02 12:00:24;;;;;;;3.33;1.10;;;8.10;75.00;;;;;;5073835;28;20020;-69
2021/12/02 12:03:02;;;;;;;2.47;1.10;;;8.10;74.90;;;;;;5106781;28;20467;-69
2021/12/02 12:05:33;;;;;;;3.77;1.37;;;8.10;75.00;;;;;;5106673;28;20039;-69
2021/12/02 12:07:59;;;;;;;3.75;1.00;;;8.10;75.10;;;;;;5056494;28;20028;-69
2021/12/02 12:10:32;;;;;;;2.30;0.93;;;8.10;75.10;;;;;;5056069;28;20036;-69
2021/12/02 12:13:13;;;;;;;3.73;1.00;;;8.10;74.90;;;;;;5073629;28;20033;-69
2021/12/02 12:15:45;;;;;;;1.63;0.90;;;8.20;74.70;;;;;;5074052;28;20039;-67
2021/12/02 12:18:34;;;;;;;1.88;0.98;;;8.20;74.70;;;;;;5073947;28;20064;-67
2021/12/02 12:21:08;;;;;;;1.30;0.70;;;8.10;74.60;;;;;;5073635;28;20139;-68
2021/12/02 12:23:40;;;;;;;1.07;0.70;;;8.10;74.60;;;;;;5072945;28;20067;-69
2021/12/02 12:26:43;;;;;;;0.85;0.60;;;8.10;74.50;;;;;;5106028;28;20035;-69
2021/12/02 12:29:09;;;;;;;1.73;0.70;;;8.00;74.40;;;;;;5015547;28;20049;-69
2021/12/02 12:32:06;;;;;;;2.00;0.70;;;7.90;74.60;;;;;;5031835;28;20041;-69
2021/12/02 12:34:42;;;;;;;1.40;0.70;;;7.80;74.50;;;;;;5015666;28;20132;-69
2021/12/02 12:40:06;;;;;;;1.33;0.80;;;7.80;74.60;;;;;;5032337;28;20159;-68
2021/12/02 12:42:32;;;;;;;1.67;0.70;;;7.90;74.60;;;;;;5012418;28;20045;-69
2021/12/02 12:44:59;;;;;;;1.70;0.80;;;7.90;74.60;;;;;;5013895;28;20030;-69
2021/12/02 12:47:43;;;;;;;2.90;1.00;;;7.90;74.50;;;;;;5052511;28;20032;-69
2021/12/02 12:50:30;;;;;;;0.90;0.60;;;7.90;74.40;;;;;;5050547;28;20091;-69
2021/12/02 12:53:08;;;;;;;1.13;0.70;;;7.90;75.20;;;;;;5016780;28;20039;-69
2021/12/02 12:55:54;;;;;;;1.43;0.70;;;7.90;74.60;;;;;;5039294;28;20028;-69
2021/12/02 12:58:25;;;;;;;1.43;0.80;;;7.90;74.60;;;;;;5055953;28;20216;-69
2021/12/02 13:00:55;;;;;;;3.22;0.80;;;7.90;74.60;;;;;;5049859;28;20042;-68
2021/12/02 13:03:31;;;;;;;0.70;0.60;;;7.80;74.50;;;;;;5041260;28;20045;-67
2021/12/02 13:06:10;;;;;;;1.83;0.80;;;7.90;74.60;;;;;;5083329;28;20361;-69
2021/12/02 13:08:48;;;;;;;0.90;0.70;;;7.90;74.50;;;;;;5074505;28;20028;-70
2021/12/02 13:11:20;;;;;;;1.07;0.50;;;7.80;74.50;;;;;;5075230;28;20377;-69
2021/12/02 13:13:49;;;;;;;1.83;0.80;;;7.80;74.40;;;;;;5076606;28;20028;-68
2021/12/02 13:16:16;;;;;;;1.30;0.80;;;7.80;74.40;;;;;;5072739;28;20028;-70
2021/12/02 13:19:04;;;;;;;1.17;0.70;;;7.90;74.40;;;;;;5071780;28;20473;-69
2021/12/02 13:21:33;;;;;;;1.37;0.77;;;7.80;74.30;;;;;;5062211;28;20040;-69
2021/12/02 13:24:05;;;;;;;3.43;1.17;;;7.80;74.30;;;;;;5056768;28;20408;-69
2021/12/02 13:26:36;;;;;;;2.67;1.00;;;7.80;74.40;;;;;;5074657;28;20024;-70
2021/12/02 13:29:18;;;;;;;1.90;0.95;;;7.70;74.40;;;;;;5075870;28;20087;-69
2021/12/02 13:31:52;;;;;;;2.42;1.00;;;7.70;74.40;;;;;;5071929;28;20441;-68